Aviation Digital Data Service (ADDS)

Output produced by TAFs form (0152 UTC 25 April 2015)
found at http://www.aviationweather.gov/adds/tafs/
 
KALB 242324Z 2500/2524 29013G22KT P6SM BKN050 
     FM250400 29009KT P6SM SCT050 
     FM251200 29010G20KT P6SM SCT050